CXA882 RCSS-ZSAM
Flight info
| Callsign | CXA882 |
|---|---|
| Flight time | 1h 12m |
| Altitude | 32000 |
| Route | HLG A1 ANPOG R200 OLDID X85 SWA A470 TEBON |
| Aircraft | B737/M-SDFGHIRWY/HB1 |
Departure
| Time | 2026-05-08 03:31 |
|---|---|
| Airport | Taipei Songshan International Airport (RCSS) |
Arrival
| Time | 2026-05-08 04:43 |
|---|---|
| Airport | Xiamen Gaoqi International Airport (ZSAM) |
| Time | Latitude | Longitude | Altitude | Speed | Heading |
|---|---|---|---|---|---|
| 2026-05-08 03:11 | 25.06473 | 121.55055 | 32 ft | 0 kts | 179° |
| 2026-05-08 03:21 | 25.06485 | 121.55054 | 34 ft | 2 kts | 179° |
| 2026-05-08 03:21 | 25.06500 | 121.55054 | 34 ft | 2 kts | 180° |
| 2026-05-08 03:21 | 25.06515 | 121.55054 | 34 ft | 2 kts | 179° |
| 2026-05-08 03:22 | 25.06530 | 121.55054 | 34 ft | 2 kts | 179° |
| 2026-05-08 03:22 | 25.06545 | 121.55053 | 34 ft | 2 kts | 179° |
| 2026-05-08 03:22 | 25.06559 | 121.55054 | 34 ft | 1 kts | 200° |
| 2026-05-08 03:22 | 25.06569 | 121.55062 | 34 ft | 1 kts | 239° |
| 2026-05-08 03:23 | 25.06573 | 121.55074 | 34 ft | 1 kts | 274° |
| 2026-05-08 03:23 | 25.06572 | 121.55077 | 34 ft | 0 kts | 281° |
| 2026-05-08 03:26 | 25.06572 | 121.55059 | 34 ft | 0 kts | 264° |
| 2026-05-08 03:26 | 25.06569 | 121.55030 | 34 ft | 7 kts | 266° |
| 2026-05-08 03:26 | 25.06567 | 121.54942 | 34 ft | 13 kts | 268° |
| 2026-05-08 03:27 | 25.06564 | 121.54831 | 34 ft | 15 kts | 268° |
| 2026-05-08 03:27 | 25.06563 | 121.54760 | 34 ft | 6 kts | 275° |
| 2026-05-08 03:27 | 25.06594 | 121.54686 | 34 ft | 14 kts | 302° |
| 2026-05-08 03:27 | 25.06650 | 121.54589 | 34 ft | 14 kts | 302° |
| 2026-05-08 03:28 | 25.06714 | 121.54504 | 34 ft | 14 kts | 306° |
| 2026-05-08 03:28 | 25.06774 | 121.54399 | 33 ft | 17 kts | 302° |
| 2026-05-08 03:28 | 25.06853 | 121.54258 | 33 ft | 20 kts | 302° |
| 2026-05-08 03:28 | 25.06906 | 121.54129 | 33 ft | 18 kts | 280° |
| 2026-05-08 03:29 | 25.06915 | 121.54007 | 33 ft | 9 kts | 280° |
| 2026-05-08 03:29 | 25.06922 | 121.53989 | 33 ft | 0 kts | 308° |
| 2026-05-08 03:29 | 25.06926 | 121.53985 | 33 ft | 3 kts | 321° |
| 2026-05-08 03:29 | 25.06978 | 121.53980 | 33 ft | 8 kts | 7° |
| 2026-05-08 03:30 | 25.07002 | 121.54054 | 33 ft | 9 kts | 93° |
| 2026-05-08 03:30 | 25.06957 | 121.55493 | 160 ft | 161 kts | 91° |
| 2026-05-08 03:31 | 25.06645 | 121.57751 | 1993 ft | 159 kts | 127° |
| 2026-05-08 03:31 | 25.05238 | 121.59718 | 3153 ft | 182 kts | 105° |
| 2026-05-08 03:32 | 25.04834 | 121.61120 | 3649 ft | 203 kts | 109° |
| 2026-05-08 03:32 | 25.04262 | 121.62603 | 4296 ft | 221 kts | 114° |
| 2026-05-08 03:32 | 25.03499 | 121.64139 | 4932 ft | 239 kts | 123° |
| 2026-05-08 03:32 | 25.02235 | 121.65409 | 5621 ft | 257 kts | 148° |
| 2026-05-08 03:33 | 25.00526 | 121.66055 | 6440 ft | 266 kts | 168° |
| 2026-05-08 03:33 | 24.98685 | 121.66093 | 7307 ft | 269 kts | 189° |
| 2026-05-08 03:33 | 24.96992 | 121.65267 | 8151 ft | 271 kts | 217° |
| 2026-05-08 03:33 | 24.95745 | 121.63734 | 8967 ft | 273 kts | 238° |
| 2026-05-08 03:34 | 24.95055 | 121.61810 | 9823 ft | 274 kts | 259° |
| 2026-05-08 03:34 | 24.94843 | 121.59733 | 10739 ft | 277 kts | 265° |
| 2026-05-08 03:34 | 24.94709 | 121.57626 | 11688 ft | 279 kts | 266° |
| 2026-05-08 03:34 | 24.94566 | 121.55505 | 12651 ft | 281 kts | 265° |
| 2026-05-08 03:35 | 24.94408 | 121.53364 | 13507 ft | 283 kts | 265° |
| 2026-05-08 03:35 | 24.94243 | 121.51225 | 14280 ft | 283 kts | 264° |
| 2026-05-08 03:35 | 24.94064 | 121.48980 | 15148 ft | 281 kts | 264° |
| 2026-05-08 03:35 | 24.93894 | 121.46862 | 16012 ft | 279 kts | 264° |
| 2026-05-08 03:36 | 24.93724 | 121.44757 | 16883 ft | 278 kts | 265° |
| 2026-05-08 03:36 | 24.93556 | 121.42645 | 17633 ft | 280 kts | 265° |
| 2026-05-08 03:36 | 24.93372 | 121.40497 | 18345 ft | 284 kts | 264° |
| 2026-05-08 03:36 | 24.93010 | 121.38346 | 19016 ft | 290 kts | 254° |
| 2026-05-08 03:37 | 24.92187 | 121.36311 | 19710 ft | 295 kts | 243° |
| 2026-05-08 03:37 | 24.91121 | 121.34393 | 20345 ft | 300 kts | 240° |
| 2026-05-08 03:37 | 24.90346 | 121.33078 | 20636 ft | 308 kts | 239° |
| 2026-05-08 03:37 | 24.88741 | 121.30363 | 21114 ft | 326 kts | 240° |
| 2026-05-08 03:38 | 24.87489 | 121.28214 | 21443 ft | 340 kts | 240° |
| 2026-05-08 03:38 | 24.86200 | 121.25973 | 21734 ft | 354 kts | 240° |
| 2026-05-08 03:38 | 24.84867 | 121.23642 | 22061 ft | 365 kts | 240° |
| 2026-05-08 03:38 | 24.83493 | 121.21234 | 22487 ft | 374 kts | 240° |
| 2026-05-08 03:39 | 24.82101 | 121.18790 | 22948 ft | 380 kts | 241° |
| 2026-05-08 03:39 | 24.80692 | 121.16311 | 23466 ft | 385 kts | 241° |
| 2026-05-08 03:39 | 24.79268 | 121.13800 | 23993 ft | 389 kts | 241° |
| 2026-05-08 03:39 | 24.77817 | 121.11246 | 24549 ft | 393 kts | 241° |
| 2026-05-08 03:40 | 24.76364 | 121.08688 | 25085 ft | 397 kts | 241° |
| 2026-05-08 03:40 | 24.74896 | 121.06109 | 25621 ft | 400 kts | 241° |
| 2026-05-08 03:40 | 24.73421 | 121.03516 | 26181 ft | 402 kts | 241° |
| 2026-05-08 03:40 | 24.71927 | 121.00892 | 26680 ft | 405 kts | 241° |
| 2026-05-08 03:41 | 24.70432 | 120.98261 | 27189 ft | 408 kts | 242° |
| 2026-05-08 03:41 | 24.68928 | 120.95591 | 27639 ft | 412 kts | 242° |
| 2026-05-08 03:41 | 24.67416 | 120.92906 | 28092 ft | 415 kts | 242° |
| 2026-05-08 03:41 | 24.65885 | 120.90190 | 28524 ft | 419 kts | 242° |
| 2026-05-08 03:42 | 24.64342 | 120.87459 | 28969 ft | 422 kts | 242° |
| 2026-05-08 03:42 | 24.62789 | 120.84722 | 29500 ft | 423 kts | 242° |
| 2026-05-08 03:42 | 24.61232 | 120.81988 | 29982 ft | 424 kts | 242° |
| 2026-05-08 03:42 | 24.59668 | 120.79242 | 30425 ft | 426 kts | 242° |
| 2026-05-08 03:43 | 24.58093 | 120.76489 | 30949 ft | 426 kts | 242° |
| 2026-05-08 03:43 | 24.56489 | 120.73798 | 31646 ft | 421 kts | 240° |
| 2026-05-08 03:43 | 24.54704 | 120.71239 | 31983 ft | 425 kts | 235° |
| 2026-05-08 03:44 | 24.50714 | 120.66470 | 32013 ft | 422 kts | 231° |
| 2026-05-08 03:44 | 24.46582 | 120.61871 | 32013 ft | 423 kts | 230° |
| 2026-05-08 03:45 | 24.42455 | 120.57263 | 32009 ft | 423 kts | 231° |
| 2026-05-08 03:45 | 24.38344 | 120.52630 | 32008 ft | 424 kts | 231° |
| 2026-05-08 03:46 | 24.34250 | 120.47992 | 32002 ft | 424 kts | 231° |
| 2026-05-08 03:46 | 24.30159 | 120.43351 | 32000 ft | 424 kts | 231° |
| 2026-05-08 03:47 | 24.26063 | 120.38702 | 31999 ft | 423 kts | 231° |
| 2026-05-08 03:47 | 24.21989 | 120.34082 | 31997 ft | 424 kts | 231° |
| 2026-05-08 03:48 | 24.17877 | 120.29413 | 31995 ft | 424 kts | 231° |
| 2026-05-08 03:48 | 24.13768 | 120.24755 | 31990 ft | 426 kts | 231° |
| 2026-05-08 03:49 | 24.09652 | 120.20102 | 31990 ft | 425 kts | 231° |
| 2026-05-08 03:49 | 24.05530 | 120.15444 | 31989 ft | 425 kts | 231° |
| 2026-05-08 03:50 | 24.01419 | 120.10802 | 31987 ft | 425 kts | 231° |
| 2026-05-08 03:50 | 23.97309 | 120.06167 | 31987 ft | 425 kts | 231° |
| 2026-05-08 03:51 | 23.93193 | 120.01529 | 31987 ft | 425 kts | 230° |
| 2026-05-08 03:51 | 23.89063 | 119.96883 | 31984 ft | 425 kts | 231° |
| 2026-05-08 03:52 | 23.84917 | 119.92219 | 31981 ft | 426 kts | 231° |
| 2026-05-08 03:52 | 23.80767 | 119.87558 | 31979 ft | 427 kts | 231° |
| 2026-05-08 03:53 | 23.76609 | 119.82892 | 31979 ft | 427 kts | 231° |
| 2026-05-08 03:53 | 23.72457 | 119.78237 | 31979 ft | 427 kts | 231° |
| 2026-05-08 03:54 | 23.68319 | 119.73606 | 31979 ft | 427 kts | 231° |
| 2026-05-08 03:54 | 23.64175 | 119.68969 | 31975 ft | 426 kts | 230° |
| 2026-05-08 03:55 | 23.60125 | 119.64244 | 31974 ft | 424 kts | 235° |
| 2026-05-08 03:55 | 23.56710 | 119.59061 | 31974 ft | 420 kts | 241° |
| 2026-05-08 03:56 | 23.53576 | 119.53663 | 31976 ft | 419 kts | 242° |
| 2026-05-08 03:56 | 23.50480 | 119.48243 | 31978 ft | 420 kts | 243° |
| 2026-05-08 03:57 | 23.47382 | 119.42850 | 31981 ft | 419 kts | 242° |
| 2026-05-08 03:57 | 23.44261 | 119.37450 | 31980 ft | 420 kts | 242° |
| 2026-05-08 03:58 | 23.41130 | 119.32060 | 31978 ft | 421 kts | 242° |
| 2026-05-08 03:58 | 23.37999 | 119.26677 | 31979 ft | 421 kts | 242° |
| 2026-05-08 03:59 | 23.34863 | 119.21300 | 31976 ft | 420 kts | 242° |
| 2026-05-08 03:59 | 23.31719 | 119.15918 | 31973 ft | 422 kts | 242° |
| 2026-05-08 04:00 | 23.28574 | 119.10536 | 31977 ft | 421 kts | 242° |
| 2026-05-08 04:00 | 23.25421 | 119.05141 | 31973 ft | 422 kts | 242° |
| 2026-05-08 04:01 | 23.22252 | 118.99728 | 31969 ft | 424 kts | 242° |
| 2026-05-08 04:01 | 23.19088 | 118.94328 | 31974 ft | 422 kts | 242° |
| 2026-05-08 04:02 | 23.15926 | 118.88934 | 31967 ft | 423 kts | 242° |
| 2026-05-08 04:02 | 23.12772 | 118.83561 | 31972 ft | 421 kts | 242° |
| 2026-05-08 04:03 | 23.09622 | 118.78201 | 31968 ft | 421 kts | 242° |
| 2026-05-08 04:03 | 23.04888 | 118.70158 | 31968 ft | 422 kts | 242° |
| 2026-05-08 04:04 | 23.01732 | 118.64800 | 31967 ft | 423 kts | 242° |
| 2026-05-08 04:04 | 22.98563 | 118.59432 | 31968 ft | 422 kts | 242° |
| 2026-05-08 04:05 | 22.95397 | 118.54074 | 31969 ft | 423 kts | 242° |
| 2026-05-08 04:05 | 22.92222 | 118.48724 | 31968 ft | 423 kts | 241° |
| 2026-05-08 04:06 | 22.89031 | 118.43362 | 31970 ft | 422 kts | 242° |
| 2026-05-08 04:06 | 22.85850 | 118.38025 | 31967 ft | 422 kts | 242° |
| 2026-05-08 04:07 | 22.82667 | 118.32687 | 31966 ft | 422 kts | 241° |
| 2026-05-08 04:07 | 22.79478 | 118.27344 | 31967 ft | 421 kts | 241° |
| 2026-05-08 04:08 | 22.76287 | 118.22004 | 31966 ft | 422 kts | 241° |
| 2026-05-08 04:08 | 22.73095 | 118.16666 | 31962 ft | 423 kts | 241° |
| 2026-05-08 04:09 | 22.69905 | 118.11339 | 31963 ft | 421 kts | 241° |
| 2026-05-08 04:09 | 22.66906 | 118.05902 | 31964 ft | 419 kts | 249° |
| 2026-05-08 04:10 | 22.65462 | 117.99891 | 31962 ft | 411 kts | 267° |
| 2026-05-08 04:10 | 22.65652 | 117.93767 | 31834 ft | 406 kts | 282° |
| 2026-05-08 04:11 | 22.66439 | 117.90858 | 31572 ft | 398 kts | 292° |
| 2026-05-08 04:11 | 22.67621 | 117.88174 | 31313 ft | 396 kts | 298° |
| 2026-05-08 04:11 | 22.69070 | 117.85626 | 31057 ft | 399 kts | 304° |
| 2026-05-08 04:11 | 22.70790 | 117.83253 | 30795 ft | 401 kts | 310° |
| 2026-05-08 04:12 | 22.72672 | 117.81020 | 30539 ft | 401 kts | 312° |
| 2026-05-08 04:12 | 22.74616 | 117.78854 | 30282 ft | 402 kts | 313° |
| 2026-05-08 04:12 | 22.76584 | 117.76693 | 30031 ft | 403 kts | 313° |
| 2026-05-08 04:12 | 22.78542 | 117.74533 | 29960 ft | 401 kts | 313° |
| 2026-05-08 04:13 | 22.82451 | 117.70157 | 29960 ft | 405 kts | 313° |
| 2026-05-08 04:13 | 22.86350 | 117.65728 | 29960 ft | 406 kts | 312° |
| 2026-05-08 04:14 | 22.90226 | 117.61288 | 29966 ft | 403 kts | 312° |
| 2026-05-08 04:14 | 22.94083 | 117.56848 | 29970 ft | 404 kts | 312° |
| 2026-05-08 04:15 | 22.97930 | 117.52409 | 29966 ft | 404 kts | 311° |
| 2026-05-08 04:15 | 23.01454 | 117.47658 | 29966 ft | 402 kts | 304° |
| 2026-05-08 04:16 | 23.04575 | 117.42606 | 29967 ft | 402 kts | 302° |
| 2026-05-08 04:16 | 23.07613 | 117.37495 | 29958 ft | 402 kts | 302° |
| 2026-05-08 04:17 | 23.10669 | 117.32364 | 29954 ft | 403 kts | 302° |
| 2026-05-08 04:17 | 23.13698 | 117.27299 | 29954 ft | 402 kts | 302° |
| 2026-05-08 04:18 | 23.16780 | 117.22157 | 29959 ft | 402 kts | 302° |
| 2026-05-08 04:18 | 23.19853 | 117.17036 | 29960 ft | 402 kts | 302° |
| 2026-05-08 04:19 | 23.22919 | 117.11920 | 29953 ft | 402 kts | 302° |
| 2026-05-08 04:19 | 23.25971 | 117.06817 | 29946 ft | 403 kts | 302° |
| 2026-05-08 04:20 | 23.29028 | 117.01706 | 29948 ft | 402 kts | 302° |
| 2026-05-08 04:20 | 23.32114 | 116.96627 | 29954 ft | 402 kts | 304° |
| 2026-05-08 04:21 | 23.35998 | 116.92241 | 29954 ft | 407 kts | 322° |
| 2026-05-08 04:21 | 23.38468 | 116.90700 | 29809 ft | 414 kts | 331° |
| 2026-05-08 04:21 | 23.41185 | 116.89555 | 29554 ft | 415 kts | 338° |
| 2026-05-08 04:22 | 23.43997 | 116.88755 | 29296 ft | 419 kts | 346° |
| 2026-05-08 04:22 | 23.46935 | 116.88477 | 28901 ft | 425 kts | 356° |
| 2026-05-08 04:22 | 23.49889 | 116.88834 | 28228 ft | 428 kts | 7° |
| 2026-05-08 04:22 | 23.52751 | 116.89751 | 27596 ft | 428 kts | 16° |
| 2026-05-08 04:23 | 23.55496 | 116.91025 | 26841 ft | 429 kts | 23° |
| 2026-05-08 04:23 | 23.58018 | 116.92764 | 26136 ft | 431 kts | 34° |
| 2026-05-08 04:23 | 23.60268 | 116.94920 | 25494 ft | 429 kts | 40° |
| 2026-05-08 04:23 | 23.62366 | 116.97212 | 24899 ft | 424 kts | 43° |
| 2026-05-08 04:24 | 23.64386 | 116.99534 | 24327 ft | 419 kts | 43° |
| 2026-05-08 04:24 | 23.66362 | 117.01838 | 23757 ft | 413 kts | 44° |
| 2026-05-08 04:24 | 23.68316 | 117.04119 | 23200 ft | 407 kts | 44° |
| 2026-05-08 04:24 | 23.70246 | 117.06359 | 22648 ft | 401 kts | 44° |
| 2026-05-08 04:25 | 23.72149 | 117.08553 | 22107 ft | 396 kts | 43° |
| 2026-05-08 04:25 | 23.74044 | 117.10726 | 21576 ft | 396 kts | 43° |
| 2026-05-08 04:25 | 23.75968 | 117.12918 | 21027 ft | 399 kts | 43° |
| 2026-05-08 04:25 | 23.77921 | 117.15072 | 20480 ft | 395 kts | 41° |
| 2026-05-08 04:26 | 23.79920 | 117.17095 | 19939 ft | 389 kts | 39° |
| 2026-05-08 04:26 | 23.81939 | 117.19042 | 19393 ft | 384 kts | 38° |
| 2026-05-08 04:26 | 23.83952 | 117.20955 | 18860 ft | 379 kts | 38° |
| 2026-05-08 04:26 | 23.85928 | 117.22835 | 18328 ft | 375 kts | 38° |
| 2026-05-08 04:27 | 23.87886 | 117.24710 | 17795 ft | 373 kts | 39° |
| 2026-05-08 04:27 | 23.89848 | 117.26600 | 17275 ft | 377 kts | 39° |
| 2026-05-08 04:27 | 23.91807 | 117.28499 | 16757 ft | 374 kts | 39° |
| 2026-05-08 04:27 | 23.93740 | 117.30383 | 16215 ft | 369 kts | 39° |
| 2026-05-08 04:28 | 23.95656 | 117.32254 | 15695 ft | 365 kts | 39° |
| 2026-05-08 04:28 | 23.97550 | 117.34107 | 15178 ft | 361 kts | 39° |
| 2026-05-08 04:28 | 23.99407 | 117.35928 | 14659 ft | 357 kts | 39° |
| 2026-05-08 04:28 | 24.01249 | 117.37734 | 14154 ft | 353 kts | 39° |
| 2026-05-08 04:29 | 24.03073 | 117.39523 | 13641 ft | 349 kts | 39° |
| 2026-05-08 04:29 | 24.04886 | 117.41297 | 13141 ft | 345 kts | 39° |
| 2026-05-08 04:29 | 24.06672 | 117.43043 | 12631 ft | 342 kts | 39° |
| 2026-05-08 04:29 | 24.08455 | 117.44788 | 12126 ft | 342 kts | 40° |
| 2026-05-08 04:30 | 24.10230 | 117.46529 | 11632 ft | 346 kts | 40° |
| 2026-05-08 04:30 | 24.12024 | 117.48292 | 11149 ft | 343 kts | 40° |
| 2026-05-08 04:30 | 24.13769 | 117.50057 | 10682 ft | 338 kts | 43° |
| 2026-05-08 04:30 | 24.15389 | 117.51896 | 10394 ft | 327 kts | 45° |
| 2026-05-08 04:31 | 24.16900 | 117.53706 | 10277 ft | 312 kts | 46° |
| 2026-05-08 04:31 | 24.18324 | 117.55439 | 10132 ft | 299 kts | 46° |
| 2026-05-08 04:31 | 24.19705 | 117.57117 | 9805 ft | 295 kts | 46° |
| 2026-05-08 04:31 | 24.21087 | 117.58783 | 9413 ft | 293 kts | 46° |
| 2026-05-08 04:32 | 24.22440 | 117.60405 | 9052 ft | 290 kts | 46° |
| 2026-05-08 04:32 | 24.23808 | 117.62045 | 8687 ft | 288 kts | 46° |
| 2026-05-08 04:32 | 24.25156 | 117.63660 | 8328 ft | 285 kts | 46° |
| 2026-05-08 04:32 | 24.26494 | 117.65264 | 7971 ft | 282 kts | 47° |
| 2026-05-08 04:33 | 24.27809 | 117.66840 | 7618 ft | 280 kts | 47° |
| 2026-05-08 04:33 | 24.29122 | 117.68414 | 7264 ft | 277 kts | 47° |
| 2026-05-08 04:33 | 24.30422 | 117.69969 | 6914 ft | 274 kts | 47° |
| 2026-05-08 04:33 | 24.31714 | 117.71512 | 6566 ft | 271 kts | 48° |
| 2026-05-08 04:34 | 24.32980 | 117.73026 | 6230 ft | 268 kts | 47° |
| 2026-05-08 04:34 | 24.34223 | 117.74515 | 6041 ft | 259 kts | 48° |
| 2026-05-08 04:34 | 24.35414 | 117.75933 | 5969 ft | 245 kts | 48° |
| 2026-05-08 04:34 | 24.36532 | 117.77287 | 5899 ft | 233 kts | 48° |
| 2026-05-08 04:35 | 24.37632 | 117.78590 | 5834 ft | 232 kts | 47° |
| 2026-05-08 04:35 | 24.38750 | 117.79858 | 5761 ft | 229 kts | 47° |
| 2026-05-08 04:35 | 24.39677 | 117.81244 | 5674 ft | 221 kts | 65° |
| 2026-05-08 04:35 | 24.39981 | 117.82880 | 5451 ft | 217 kts | 89° |
| 2026-05-08 04:36 | 24.40013 | 117.84489 | 5214 ft | 207 kts | 87° |
| 2026-05-08 04:36 | 24.40130 | 117.86038 | 4997 ft | 198 kts | 84° |
| 2026-05-08 04:36 | 24.40277 | 117.87518 | 4797 ft | 192 kts | 85° |
| 2026-05-08 04:36 | 24.40385 | 117.88947 | 4597 ft | 184 kts | 86° |
| 2026-05-08 04:37 | 24.40485 | 117.90331 | 4395 ft | 178 kts | 84° |
| 2026-05-08 04:37 | 24.40591 | 117.91657 | 4246 ft | 169 kts | 85° |
| 2026-05-08 04:37 | 24.40664 | 117.92915 | 4124 ft | 164 kts | 83° |
| 2026-05-08 04:37 | 24.40977 | 117.94095 | 3982 ft | 160 kts | 57° |
| 2026-05-08 04:38 | 24.41736 | 117.94984 | 3761 ft | 159 kts | 45° |
| 2026-05-08 04:38 | 24.42443 | 117.95911 | 3557 ft | 156 kts | 56° |
| 2026-05-08 04:38 | 24.43021 | 117.96925 | 3367 ft | 156 kts | 54° |
| 2026-05-08 04:38 | 24.43712 | 117.97868 | 3141 ft | 158 kts | 50° |
| 2026-05-08 04:39 | 24.44402 | 117.98810 | 2938 ft | 155 kts | 52° |
| 2026-05-08 04:39 | 24.45057 | 117.99758 | 2723 ft | 154 kts | 53° |
| 2026-05-08 04:39 | 24.45698 | 118.00656 | 2564 ft | 142 kts | 51° |
| 2026-05-08 04:39 | 24.46319 | 118.01509 | 2361 ft | 145 kts | 51° |
| 2026-05-08 04:40 | 24.46974 | 118.02427 | 2148 ft | 154 kts | 51° |
| 2026-05-08 04:40 | 24.47645 | 118.03353 | 1937 ft | 153 kts | 51° |
| 2026-05-08 04:40 | 24.48278 | 118.04231 | 1744 ft | 137 kts | 52° |
| 2026-05-08 04:40 | 24.48844 | 118.05016 | 1540 ft | 125 kts | 51° |
| 2026-05-08 04:41 | 24.49380 | 118.05762 | 1394 ft | 125 kts | 52° |
| 2026-05-08 04:41 | 24.49919 | 118.06514 | 1224 ft | 124 kts | 52° |
| 2026-05-08 04:41 | 24.50457 | 118.07261 | 1059 ft | 125 kts | 52° |
| 2026-05-08 04:41 | 24.50994 | 118.08023 | 892 ft | 125 kts | 52° |
| 2026-05-08 04:42 | 24.51556 | 118.08761 | 722 ft | 126 kts | 53° |
| 2026-05-08 04:42 | 24.52101 | 118.09526 | 568 ft | 127 kts | 53° |
| 2026-05-08 04:42 | 24.52657 | 118.10293 | 394 ft | 127 kts | 54° |
| 2026-05-08 04:42 | 24.53200 | 118.11057 | 221 ft | 126 kts | 56° |
| 2026-05-08 04:43 | 24.53738 | 118.11819 | 78 ft | 123 kts | 54° |
| 2026-05-08 04:43 | 24.54180 | 118.12439 | 75 ft | 71 kts | 53° |
| 2026-05-08 04:43 | 24.54394 | 118.12739 | 75 ft | 35 kts | 52° |
| 2026-05-08 04:43 | 24.54499 | 118.12939 | 75 ft | 28 kts | 73° |
| 2026-05-08 04:44 | 24.54533 | 118.13114 | 75 ft | 8 kts | 81° |
| 2026-05-08 04:44 | 24.54513 | 118.13146 | 75 ft | 6 kts | 161° |
| 2026-05-08 04:44 | 24.54458 | 118.13122 | 75 ft | 11 kts | 231° |
| 2026-05-08 04:44 | 24.54384 | 118.13018 | 75 ft | 22 kts | 231° |
| 2026-05-08 04:45 | 24.54287 | 118.12884 | 75 ft | 20 kts | 232° |
| 2026-05-08 04:45 | 24.54208 | 118.12772 | 75 ft | 19 kts | 232° |
| 2026-05-08 04:45 | 24.54118 | 118.12647 | 76 ft | 22 kts | 231° |
| 2026-05-08 04:45 | 24.54037 | 118.12533 | 76 ft | 10 kts | 233° |
| 2026-05-08 04:46 | 24.53985 | 118.12514 | 76 ft | 9 kts | 155° |
| 2026-05-08 04:46 | 24.53929 | 118.12560 | 76 ft | 10 kts | 141° |
| 2026-05-08 04:46 | 24.53878 | 118.12563 | 76 ft | 9 kts | 229° |
| 2026-05-08 04:46 | 24.53827 | 118.12493 | 76 ft | 13 kts | 232° |
| 2026-05-08 04:47 | 24.53774 | 118.12420 | 76 ft | 8 kts | 224° |
| 2026-05-08 04:47 | 24.53728 | 118.12408 | 76 ft | 5 kts | 158° |
| 2026-05-08 04:47 | 24.53698 | 118.12430 | 76 ft | 2 kts | 142° |
| 2026-05-08 04:47 | 24.53687 | 118.12439 | 76 ft | 1 kts | 142° |
| 2026-05-08 04:48 | 24.53684 | 118.12442 | 76 ft | 0 kts | 142° |
| 2026-05-08 04:50 | 24.53686 | 118.12440 | 76 ft | 0 kts | 142° |
| 2026-05-08 04:51 | 24.53689 | 118.12438 | 76 ft | 0 kts | 142° |